• Join FlightAware (Why Join?)
  • Login
  • US Flag 
06:27PM EDT


 

Airport Tracker/Info


-or-


 

Live Flight TrackerFlight Track Log ✈ DAL1061 ✈ 22-Nov-2013 ✈ KMCO - KLAX

Flight Track Log - Related Links

Times and Time Zones

All times are in EST time to prevent confusion due to time zone crossing. See the DAL1061 flight status page for this flight to view local times or setup timezone preferences in your user account.

Time Position Orientation Groundspeed Altitude Reporting Facility
EST Latitude Longitude Course Direction KTS MPH feet Rate Location/Type
06:35PM 28.4000 -81.3000 270° West 183 211 900  Level Orlando TRACON
06:36PM 28.3667 -81.3500 233° Southwest 272 313 2,900 2,460 Climbing Orlando TRACON
06:37PM 28.3500 -81.4500 259° West 288 331 6,100 3,180 Climbing Orlando TRACON
06:38PM 28.5459 -81.6876 270° West  Level Estimated
06:38PM 28.3500 -81.5333 270° West 288 331 9,300  Level Orlando TRACON
06:39PM 28.5844 -81.8140 270° West  Level Estimated
06:40PM 28.6229 -81.9405 270° West  Level Estimated
06:40PM 28.3364 -81.7039 265° West 320 368 11,700  Level Jacksonville Center
06:41PM 28.6613 -82.0671 270° West  Level Estimated
06:41PM 28.3269 -81.8267 265° West 362 417 13,500  Level Jacksonville Center
06:42PM 28.3197 -81.9542 266° West 398 458 15,600 2,100 Climbing Jacksonville Center
06:43PM 28.3017 -82.0839 261° West 416 479 17,700 1,800 Climbing Jacksonville Center
06:44PM 28.2733 -82.2139 256° West 421 484 19,200 1,500 Climbing Jacksonville Center
06:45PM 28.2447 -82.3483 256° West 433 498 20,800 1,500 Climbing Jacksonville Center
06:46PM 28.2139 -82.4850 256° West 433 498 22,300 1,560 Climbing Jacksonville Center
06:47PM 28.1831 -82.6242 256° West 443 510 24,000 1,380 Climbing Jacksonville Center
06:49PM 28.1119 -82.9289 255° West 455 524 26,700 1,380 Climbing Miami Center
06:50PM 28.0789 -83.0681 255° West 467 537 28,400 1,380 Climbing Miami Center
06:51PM 28.0475 -83.2122 256° West 467 537 29,500 780 Climbing Miami Center
06:52PM 28.0142 -83.3511 255° West 467 537 30,000 240 Climbing Miami Center
06:53PM 27.9928 -83.4981 261° West 467 537 30,000  Level Miami Center
06:54PM 27.9858 -83.6456 267° West 467 537 30,000  Level Miami Center
06:55PM 27.9789 -83.7931 267° West 467 537 30,000  Level Miami Center
06:56PM 27.9675 -83.9403 265° West 473 544 30,000  Level Miami Center
06:57PM 27.9642 -84.0881 269° West 478 550 30,000  Level Miami Center
06:58PM 27.9506 -84.2350 264° West 473 544 30,000  Level Miami Center
07:01PM 27.9306 -84.5461 266° West 457 526 30,000  Level Jacksonville Center
07:02PM 27.9203 -84.6939 266° West 463 533 30,000  Level Jacksonville Center
07:03PM 27.9142 -84.8394 267° West 463 533 30,000  Level Jacksonville Center
07:04PM 27.9056 -84.9894 266° West 478 550 30,000  Level Jacksonville Center
07:05PM 27.9133 -85.1331 274° West 469 540 30,000  Level Jacksonville Center
07:06PM 27.9442 -85.2792 283° West 470 541 30,000  Level Jacksonville Center
07:07PM 27.9833 -85.4094 289° West 464 534 30,000  Level Jacksonville Center
07:08PM 28.0242 -85.5633 287° West 464 534 30,000  Level Jacksonville Center
07:09PM 28.0608 -85.7053 286° West 464 534 30,000  Level Jacksonville Center
07:10PM 28.0994 -85.8406 288° West 464 534 30,000  Level Jacksonville Center
07:11PM 28.1358 -85.9828 286° West 464 534 30,000  Level Jacksonville Center
07:12PM 28.1722 -86.1181 287° West 457 526 30,000  Level Jacksonville Center
07:13PM 28.2122 -86.2583 288° West 462 532 30,000  Level Jacksonville Center
07:14PM 28.2483 -86.3939 287° West 461 531 30,000  Level Jacksonville Center
07:15PM 28.2842 -86.5317 286° West 466 536 30,000  Level Jacksonville Center
07:16PM 28.3258 -86.6769 288° West 462 532 30,000  Level Jacksonville Center
07:17PM 28.3592 -86.8150 285° West 462 532 30,000  Level Jacksonville Center
07:18PM 28.3944 -86.9556 286° West 461 531 30,000  Level Jacksonville Center
07:19PM 28.4336 -87.0989 287° West 461 531 30,000  Level Jacksonville Center
07:19PM 28.4528 -87.1714 287° West 466 536 30,000  Level Houston Center
07:20PM 28.4897 -87.3131 287° West 467 537 30,000  Level Houston Center
07:21PM 28.5261 -87.4569 286° West 472 543 30,000  Level Houston Center
07:22PM 28.5625 -87.5978 286° West 467 537 30,000  Level Houston Center
07:23PM 28.6064 -87.7697 286° West 471 542 30,000  Level Houston Center
07:24PM 28.6428 -87.9108 286° West 467 537 30,000  Level Houston Center
07:25PM 28.6778 -88.0531 286° West 468 539 30,000  Level Houston Center
07:26PM 28.7125 -88.1900 286° West 465 535 30,000  Level Houston Center
07:27PM 28.7478 -88.3328 286° West 468 539 30,000  Level Houston Center
07:29PM 28.7833 -88.4742 286° West 467 537 30,000  Level Houston Center
07:30PM 28.8253 -88.6461 286° West 468 539 30,000  Level Houston Center
07:31PM 28.8600 -88.7878 286° West 466 536 30,000  Level Houston Center
07:32PM 28.8947 -88.9303 286° West 467 537 30,000  Level Houston Center
07:33PM 28.9294 -89.0733 286° West 467 537 30,000  Level Houston Center
07:34PM 28.9639 -89.2169 285° West 468 539 30,000  Level Houston Center
07:35PM 28.9994 -89.3594 286° West 469 540 30,000  Level Houston Center
07:36PM 29.0258 -89.5039 282° West 465 535 30,000  Level Houston Center
07:37PM 29.0592 -89.6817 282° West 474 545 30,000  Level Houston Center
07:38PM 29.0869 -89.8253 283° West 466 536 30,000  Level Houston Center
07:39PM 29.1142 -89.9689 282° West 463 533 30,000  Level Houston Center
07:40PM 29.1419 -90.1133 282° West 463 533 30,000  Level Houston Center
07:41PM 29.1692 -90.2578 282° West 464 534 30,000  Level Houston Center
07:42PM 29.1961 -90.4031 282° West 465 535 30,000  Level Houston Center
07:43PM 29.2233 -90.5458 282° West 462 532 30,000  Level Houston Center
07:44PM 29.2497 -90.6900 282° West 462 532 30,000 600 Level Houston Center
07:45PM 29.2814 -90.8622 282° West 462 532 31,300 1,260 Climbing Houston Center
07:46PM 29.3147 -91.0033 285° West 460 529 32,600 1,260 Climbing Houston Center
07:47PM 29.3489 -91.1442 286° West 458 527 33,900 660 Climbing Houston Center
07:48PM 29.3808 -91.2833 285° West 452 520 34,000  Climbing Houston Center
07:49PM 29.4128 -91.4231 285° West 454 522 34,000  Level Houston Center
07:50PM 29.4447 -91.5611 285° West 450 518 34,000  Level Houston Center
07:51PM 29.4775 -91.7006 285° West 452 520 34,000  Level Houston Center
07:52PM 29.5097 -91.8425 285° West 451 519 34,000  Level Houston Center
07:53PM 29.5481 -92.0089 285° West 450 518 34,000  Level Houston Center
07:54PM 29.5778 -92.1461 284° West 446 513 34,000  Level Houston Center
07:55PM 29.6097 -92.2811 285° West 440 506 34,000  Level Houston Center
07:56PM 29.6394 -92.4192 284° West 444 511 34,000  Level Houston Center
07:57PM 29.6711 -92.5558 285° West 443 510 34,000  Level Houston Center
07:58PM 29.7008 -92.6928 284° West 443 510 34,000  Level Houston Center
07:59PM 29.7308 -92.8308 284° West 445 512 34,000  Level Houston Center
08:00PM 29.7681 -92.9972 284° West 447 514 34,000  Level Houston Center
08:01PM 29.7986 -93.1367 284° West 448 516 34,000  Level Houston Center
08:02PM 29.8292 -93.2775 284° West 452 520 34,000  Level Houston Center
08:04PM 29.8594 -93.4183 284° West 451 519 34,000  Level Houston Center
08:05PM 29.8908 -93.5592 284° West 451 519 34,000  Level Houston Center
08:06PM 29.9200 -93.6972 284° West 444 511 34,000  Level Houston Center
08:07PM 29.9500 -93.8342 284° West 438 504 34,000  Level Houston Center
08:08PM 29.9783 -93.9703 284° West 435 501 34,000  Level Houston Center
08:09PM 30.0133 -94.1339 284° West 436 502 34,000  Level Houston Center
08:10PM 30.0417 -94.2678 284° West 433 498 34,000  Level Houston Center
08:11PM 30.0692 -94.4019 283° West 430 495 34,000  Level Houston Center
08:12PM 30.0994 -94.5472 284° West 432 497 34,000  Level Houston Center
08:13PM 30.1267 -94.6814 283° West 431 496 34,000  Level Houston Center
08:14PM 30.1544 -94.8167 283° West 434 499 34,000  Level Houston Center
08:15PM 30.1825 -94.9511 284° West 435 501 34,000  Level Houston Center
08:16PM 30.2103 -95.0864 283° West 436 502 34,000  Level Houston Center
08:17PM 30.2369 -95.2228 283° West 438 504 34,000  Level Houston Center
08:18PM 30.2706 -95.3867 283° West 439 505 34,000  Level Houston Center
08:19PM 30.2975 -95.5236 283° West 440 506 34,000 660 Level Houston Center
08:20PM 30.3244 -95.6611 283° West 440 506 35,400 960 Climbing Houston Center
08:21PM 30.3517 -95.7956 283° West 434 499 36,000 240 Climbing Houston Center
08:22PM 30.3775 -95.9331 282° West 437 503 36,000  Level Houston Center
08:23PM 30.4081 -96.0894 283° West 437 503 36,000  Level Houston Center
08:24PM 30.4353 -96.2283 283° West 438 504 36,000  Level Houston Center
08:25PM 30.4619 -96.3675 283° West 438 504 36,000  Level Houston Center
08:26PM 30.4883 -96.5067 282° West 438 504 36,000  Level Houston Center
08:27PM 30.5147 -96.6444 283° West 434 499 36,000  Level Houston Center
08:28PM 30.5411 -96.7828 283° West 435 501 36,000  Level Houston Center
08:29PM 30.5664 -96.9222 282° West 436 502 36,000  Level Houston Center
08:30PM 30.5694 -97.0603 272° West 429 494 36,000  Level Houston Center
08:31PM 30.4989 -97.1961 239° Southwest 417 480 36,000  Level Houston Center
08:32PM 30.4731 -97.3286 257° West 430 495 36,000  Level Houston Center
08:33PM 30.4958 -97.4708 281° West 440 506 36,000  Level Houston Center
08:34PM 30.5231 -97.6108 283° West 440 506 36,000  Level Houston Center
08:35PM 30.5492 -97.7522 282° West 441 507 36,000  Level Houston Center
08:36PM 30.5778 -97.8922 283° West 441 507 36,000  Level Houston Center
08:38PM 30.6050 -98.0325 283° West 440 506 36,000  Level Houston Center
08:39PM 30.6325 -98.1731 283° West 441 507 36,000  Level Houston Center
08:40PM 30.6617 -98.3131 284° West 441 507 36,000  Level Houston Center
08:41PM 30.6878 -98.4539 282° West 443 510 36,000  Level Houston Center
08:42PM 30.7164 -98.5936 283° West 440 506 36,000  Level Houston Center
08:43PM 30.7431 -98.7342 282° West 441 507 36,000  Level Houston Center
08:44PM 30.7744 -98.8969 283° West 439 505 36,000  Level Houston Center
08:45PM 30.8008 -99.0364 282° West 437 503 36,000  Level Houston Center
08:46PM 30.8244 -99.1606 283° West 439 505 36,000  Level Houston Center
08:47PM 30.8500 -99.2978 282° West 436 502 36,000  Level Houston Center
08:48PM 30.8800 -99.4631 282° West 436 502 36,000  Level Houston Center
08:49PM 30.9078 -99.6014 283° West 439 505 36,000  Level Houston Center
08:50PM 30.9317 -99.7381 282° West 436 502 36,000  Level Houston Center
08:51PM 30.9572 -99.8747 282° West 435 501 36,000  Level Houston Center
08:52PM 30.9819 -100.0119 282° West 435 501 36,000  Level Houston Center
08:53PM 31.0067 -100.1497 282° West 436 502 36,000  Level Houston Center
08:54PM 31.0311 -100.2861 282° West 434 499 36,000  Level Houston Center
08:55PM 31.0608 -100.4503 282° West 433 498 36,000  Level Houston Center
08:56PM 31.0850 -100.5878 282° West 435 501 36,000  Level Houston Center
08:57PM 31.1089 -100.7239 282° West 433 498 36,000  Level Houston Center
08:58PM 31.1317 -100.8606 281° West 431 496 36,000  Level Houston Center
08:59PM 31.1556 -100.9975 282° West 433 498 36,000  Level Houston Center
09:00PM 31.1783 -101.1336 281° West 430 495 36,000  Level Houston Center
09:01PM 31.2036 -101.2775 282° West 431 496 36,000  Level Houston Center
09:02PM 31.2272 -101.4139 281° West 431 496 36,000  Level Houston Center
09:03PM 31.2544 -101.5775 281° West 429 494 36,000  Level Houston Center
09:04PM 31.2783 -101.7142 282° West 430 495 36,000  Level Houston Center
09:05PM 31.3014 -101.8506 281° West 429 494 36,000  Level Houston Center
09:06PM 31.3236 -101.9886 281° West 432 497 36,000  Level Houston Center
09:07PM 31.3475 -102.1228 282° West 429 494 36,000  Level Houston Center
09:08PM 31.3592 -102.2131 279° West 434 499 36,000  Level Albuquerque Center
09:09PM 31.3864 -102.3494 283° West 432 497 36,000  Level Albuquerque Center
09:10PM 31.4194 -102.4839 286° West 432 497 36,000  Level Albuquerque Center
09:11PM 31.4561 -102.6347 286° West 433 498 36,000  Level Albuquerque Center
09:12PM 31.4897 -102.7686 286° West 432 497 36,000  Level Albuquerque Center
09:13PM 31.5214 -102.9025 286° West 428 493 36,000 480 Level Albuquerque Center
09:14PM 31.5525 -103.0350 285° West 426 490 37,000 960 Climbing Albuquerque Center
09:15PM 31.5897 -103.1944 285° West 424 488 38,000 480 Climbing Albuquerque Center
09:16PM 31.6211 -103.3272 286° West 423 487 38,000  Level Albuquerque Center
09:17PM 31.6517 -103.4611 285° West 423 487 38,000  Level Albuquerque Center
09:18PM 31.6811 -103.5828 286° West 431 496 38,000  Level Albuquerque Center
09:19PM 31.7192 -103.7492 285° West 439 505 38,000  Level Albuquerque Center
09:20PM 31.7489 -103.8706 286° West 440 506 38,000  Level Albuquerque Center
09:21PM 31.7794 -104.0058 285° West 435 501 38,000  Level Albuquerque Center
09:22PM 31.8164 -104.1661 285° West 428 493 38,000  Level Albuquerque Center
09:23PM 31.8458 -104.2978 285° West 422 486 38,000  Level Albuquerque Center
09:24PM 31.8756 -104.4300 285° West 421 484 38,000  Level Albuquerque Center
09:25PM 31.9072 -104.5647 286° West 427 491 38,000  Level Albuquerque Center
09:26PM 31.9358 -104.6964 284° West 422 486 38,000  Level Albuquerque Center
09:27PM 31.9647 -104.8264 285° West 417 480 38,000  Level Albuquerque Center
09:28PM 31.9942 -104.9594 285° West 421 484 38,000  Level Albuquerque Center
09:29PM 32.0303 -105.1197 285° West 423 487 38,000  Level Albuquerque Center
09:31PM 32.0592 -105.2542 284° West 425 489 38,000  Level Albuquerque Center
09:32PM 32.0875 -105.3897 284° West 428 493 38,000  Level Albuquerque Center
09:33PM 32.1158 -105.5217 284° West 419 482 38,000  Level Albuquerque Center
09:34PM 32.1444 -105.6525 285° West 414 476 38,000  Level Albuquerque Center
09:35PM 32.1717 -105.7819 284° West 409 471 38,000  Level Albuquerque Center
09:36PM 32.1986 -105.9114 284° West 407 468 38,000  Level Albuquerque Center
09:37PM 32.2319 -106.0661 284° West 407 468 38,000  Level Albuquerque Center
09:38PM 32.2589 -106.1956 284° West 407 468 38,000  Level Albuquerque Center
09:39PM 32.2844 -106.3181 284° West 410 472 38,000  Level Albuquerque Center
09:40PM 32.3114 -106.4494 284° West 412 474 38,000  Level Albuquerque Center
09:41PM 32.3397 -106.5817 284° West 414 476 38,000  Level Albuquerque Center
09:42PM 32.3719 -106.7425 283° West 419 482 38,000  Level Albuquerque Center
09:43PM 32.3997 -106.8769 284° West 419 482 38,000  Level Albuquerque Center
09:44PM 32.4297 -107.0211 284° West 419 482 38,000  Level Albuquerque Center
09:45PM 32.4544 -107.1531 283° West 422 486 38,000  Level Albuquerque Center
09:46PM 32.4786 -107.2828 282° West 424 488 38,000  Level Albuquerque Center
09:47PM 32.5075 -107.4147 285° West 418 481 38,000  Level Albuquerque Center
09:48PM 32.5344 -107.5589 283° West 415 478 38,000  Level Albuquerque Center
09:49PM 32.5600 -107.6897 283° West 410 472 38,000  Level Albuquerque Center
09:50PM 32.5889 -107.8378 283° West 412 474 38,000  Level Albuquerque Center
09:51PM 32.6147 -107.9708 283° West 414 476 38,000  Level Albuquerque Center
09:52PM 32.6417 -108.1028 284° West 413 475 38,000  Level Albuquerque Center
09:53PM 32.6667 -108.2369 283° West 416 479 38,000  Level Albuquerque Center
09:54PM 32.6919 -108.3703 283° West 415 478 38,000  Level Albuquerque Center
09:55PM 32.7172 -108.5036 283° West 414 476 38,000  Level Albuquerque Center
09:56PM 32.7428 -108.6381 283° West 415 478 38,000  Level Albuquerque Center
09:57PM 32.7703 -108.7828 283° West 420 483 38,000  Level Albuquerque Center
09:58PM 32.7978 -108.9175 284° West 420 483 38,000  Level Albuquerque Center
09:59PM 32.8242 -109.0500 283° West 414 476 38,000  Level Albuquerque Center
10:00PM 32.8436 -109.1836 280° West 416 479 38,000  Level Albuquerque Center
10:01PM 32.8742 -109.3458 283° West 417 480 38,000  Level Albuquerque Center
10:02PM 32.8989 -109.4797 282° West 416 479 38,000  Level Albuquerque Center
10:03PM 32.9231 -109.6136 282° West 414 476 38,000  Level Albuquerque Center
10:04PM 32.9481 -109.7497 282° West 418 481 38,000  Level Albuquerque Center
10:05PM 32.9719 -109.8833 282° West 416 479 38,000  Level Albuquerque Center
10:06PM 32.9953 -110.0175 282° West 414 476 38,000  Level Albuquerque Center
10:07PM 33.0181 -110.1533 281° West 416 479 38,000  Level Albuquerque Center
10:08PM 33.0431 -110.2864 283° West 415 478 38,000  Level Albuquerque Center
10:10PM 33.0700 -110.4503 281° West 418 481 38,000  Level Albuquerque Center
10:11PM 33.0950 -110.5872 282° West 423 487 38,000  Level Albuquerque Center
10:12PM 33.1150 -110.7111 281° West 423 487 38,000  Level Albuquerque Center
10:13PM 33.1386 -110.8461 282° West 419 482 38,000  Level Albuquerque Center
10:14PM 33.1614 -110.9836 281° West 420 483 38,000  Level Albuquerque Center
10:15PM 33.1897 -111.1458 282° West 418 481 38,000  Level Albuquerque Center
10:16PM 33.2117 -111.2833 281° West 422 486 38,000  Level Albuquerque Center
10:17PM 33.2339 -111.4242 281° West 429 494 38,000  Level Albuquerque Center
10:18PM 33.2569 -111.5656 281° West 433 498 38,000  Level Albuquerque Center
10:19PM 33.2800 -111.7094 281° West 438 504 38,000  Level Albuquerque Center
10:20PM 33.3031 -111.8531 281° West 440 506 38,000  Level Albuquerque Center
10:21PM 33.3258 -111.9944 281° West 435 501 38,000  Level Albuquerque Center
10:22PM 33.3475 -112.1350 280° West 431 496 38,000  Level Albuquerque Center
10:23PM 33.3694 -112.2761 281° West 430 495 38,000  Level Albuquerque Center
10:24PM 33.3950 -112.4444 280° West 428 493 38,000  Level Albuquerque Center
10:25PM 33.4164 -112.5850 280° West 428 493 38,000  Level Albuquerque Center
10:26PM 33.4358 -112.7092 281° West 425 489 38,000  Level Albuquerque Center
10:27PM 33.4606 -112.8469 282° West 424 488 38,000  Level Albuquerque Center
10:28PM 33.5203 -113.0100 294° West 445 512 38,000  Level Albuquerque Center
10:29PM 33.5678 -113.1447 293° West 443 510 38,000  Level Albuquerque Center
10:30PM 33.6158 -113.2800 293° West 443 510 38,000  Level Albuquerque Center
10:31PM 33.6608 -113.4061 293° West 443 510 38,000  Level Albuquerque Center
10:32PM 33.7094 -113.5436 293° West 446 513 38,000  Level Albuquerque Center
10:33PM 33.7675 -113.7106 293° West 450 518 38,000  Level Albuquerque Center
10:34PM 33.8156 -113.8500 293° West 452 520 38,000  Level Albuquerque Center
10:35PM 33.8539 -113.9928 288° West 449 517 38,000  Level Albuquerque Center
10:36PM 33.8764 -114.1381 281° West 443 510 38,000  Level Albuquerque Center
10:37PM 33.8956 -114.2414 283° West 442 509 38,000  Level Los Angeles Center
10:38PM 33.9217 -114.4167 280° West 446 513 38,000  Level Los Angeles Center
10:39PM 33.9414 -114.5611 279° West 440 506 38,000  Level Los Angeles Center
10:40PM 33.9628 -114.7022 280° West 432 497 38,000  Level Los Angeles Center
10:41PM 33.9831 -114.8439 280° West 431 496 38,000 -900 Level Los Angeles Center
10:42PM 34.0028 -114.9847 280° West 428 493 36,200 -2,460 Descending Los Angeles Center
10:43PM 34.0244 -115.1322 280° West 445 512 33,000 -2,760 Descending Los Angeles Center
10:44PM 34.0456 -115.2831 280° West 457 526 30,600 -2,400 Descending Los Angeles Center
10:45PM 34.0692 -115.4581 279° West 444 511 28,100 -2,100 Descending Los Angeles Center
10:46PM 34.0886 -115.5989 280° West 431 496 26,300 -1,500 Descending Los Angeles Center
10:47PM 34.1083 -115.7325 280° West 411 473 25,100 -1,140 Descending Los Angeles Center
10:48PM 34.1003 -115.8556 266° West 374 430 24,000 -540 Descending Los Angeles Center
10:49PM 34.0817 -115.9739 259° West 364 419 24,000  Level Los Angeles Center
10:50PM 34.0625 -116.1006 260° West 379 436 24,000  Level Los Angeles Center
10:51PM 34.0433 -116.2347 260° West 402 463 24,000 -60 Level Los Angeles Center
10:52PM 34.0233 -116.3653 260° West 399 459 23,900 -180 Descending Los Angeles Center
10:53PM 34.0014 -116.5236 261° West 401 461 23,700 -780 Descending Los Angeles Center
10:55PM 33.9914 -116.6569 265° West 401 461 22,200 -1,200 Descending Los Angeles Center
10:56PM 33.9789 -116.8136 265° West 396 456 21,000 -1,920 Descending Los Angeles Center
10:57PM 33.9667 -116.9667 265° West 391 450 18,300 -2,040 Descending Southern California TRACON
10:58PM 33.9500 -117.0833 260° West 383 441 17,000 -1,080 Descending Southern California TRACON
10:59PM 33.9500 -117.2000 270° West 370 426 16,300 -1,020 Descending Southern California TRACON
11:00PM 33.9333 -117.3167 260° West 362 417 15,100 -1,500 Descending Southern California TRACON
11:01PM 33.9500 -117.4333 280° West 356 410 13,300 -1,800 Descending Southern California TRACON
11:02PM 34.0000 -117.5500 297° West 339 390 11,400 -1,440 Descending Southern California TRACON
11:03PM 34.0167 -117.6667 280° West 345 397 10,300 -1,080 Descending Southern California TRACON
11:04PM 34.0000 -117.7667 259° West 294 338 9,300 -1,200 Descending Southern California TRACON
11:05PM 33.9833 -117.8500 256° West 291 335 7,900 -1,200 Descending Southern California TRACON
11:06PM 33.9778 -117.9858 267° West 293 337 6,200 -1,200 Descending Los Angeles Center
11:07PM 33.9675 -118.0947 264° West 280 322 4,700 -1,380 Descending Los Angeles Center
11:08PM 33.9583 -118.1789 263° West 263 303 3,400 -1,140 Descending Los Angeles Center
11:09PM 33.9494 -118.2633 263° West 231 266 2,400 -1,080 Descending Los Angeles Center
11:10PM 33.9436 -118.3211 263° West 200 230 1,200 -1,020 Descending Los Angeles Center
11:11PM 33.9406 -118.3661 265° West 160 184 400 -540 Descending Los Angeles Center
11:12PM 33.9361 -118.4069 263° West 151 174 200 -240 Descending Los Angeles Center